Hillsdale, Mississippi
Current Conditions -  °F | °C
As of 2:53 AM on Friday 28 Nov 2014 (Local Time) from KHBG Reporting Station
Clear Clear  
Wind Chill: 31°   Ceiling: Unl
Heat Index: 31°   Visibility: 10mi
Dew Point: 30°   Wind: 0mph
Humidity: 96%   Direction: NA
Pressure: 30.44"   Gusts: NA
Location:  30.8781°N, 89.5858°W
Report Text: KHBG 280853Z AUTO 00000KT 10SM CLR M01/M01 A3044 RMK AO2 SLP309 T10061011 58008
Loading
Personal Weather Stations






























Interactive Weather Map New forecast layout! Learn more

10-Day Weather Forecast

Advertisements
Track Severe Weather on mobile